createdAt,value
2022-12-23T00:01:57.232Z,101567.47
2022-12-23T00:04:24.802Z,101562.13
2022-12-23T00:06:52.858Z,101552.47
2022-12-23T00:09:21.267Z,101551.53
2022-12-23T00:12:07.332Z,101550.75
2022-12-23T00:14:52.908Z,101552.50
2022-12-23T00:17:23.483Z,101539.25
2022-12-23T00:19:50.850Z,101531.38
2022-12-23T00:22:18.266Z,101540.06
2022-12-23T00:24:45.711Z,101535.72
2022-12-23T00:27:13.274Z,101537.47
2022-12-23T00:29:40.746Z,101537.41
2022-12-23T00:32:08.225Z,101539.06
2022-12-23T00:34:35.770Z,101531.25
2022-12-23T00:37:02.992Z,101522.31
2022-12-23T00:39:54.627Z,101533.75
2022-12-23T00:43:00.903Z,101535.44
2022-12-23T00:45:28.294Z,101535.50
2022-12-23T00:48:14.403Z,101529.34
2022-12-23T00:50:41.992Z,101517.13
2022-12-23T00:53:09.260Z,101527.66
2022-12-23T00:55:36.508Z,101525.00
2022-12-23T00:58:03.659Z,101528.56
2022-12-23T01:00:58.046Z,101526.75
2022-12-23T01:03:44.113Z,101533.75
2022-12-23T01:06:11.598Z,101545.09
2022-12-23T01:08:39.162Z,101534.53
2022-12-23T01:11:10.183Z,101526.69
2022-12-23T01:13:39.910Z,101528.53
2022-12-23T01:16:17.677Z,101529.41
2022-12-23T01:18:45.600Z,101522.50
2022-12-23T01:21:13.219Z,101521.69
2022-12-23T01:23:43.260Z,101523.44
2022-12-23T01:26:12.159Z,101528.78
2022-12-23T01:28:39.549Z,101526.94
2022-12-23T01:31:10.812Z,101523.53
2022-12-23T01:33:38.394Z,101516.44
2022-12-23T01:36:08.715Z,101507.75
2022-12-23T01:38:36.265Z,101523.78
2022-12-23T01:41:05.116Z,101532.47
2022-12-23T01:43:50.734Z,101511.31
2022-12-23T01:46:19.223Z,101520.16
2022-12-23T01:48:51.674Z,101497.25
2022-12-23T01:51:26.220Z,101524.81
2022-12-23T01:53:58.876Z,101526.44
2022-12-23T01:56:37.200Z,101528.34
2022-12-23T01:59:12.366Z,101519.56
2022-12-23T02:01:58.422Z,101524.91
2022-12-23T02:04:26.590Z,101510.78
2022-12-23T02:07:13.108Z,101510.81
2022-12-23T02:09:41.569Z,101524.94
2022-12-23T02:12:39.236Z,101520.59
2022-12-23T02:15:51.715Z,101514.38
2022-12-23T02:18:25.177Z,101525.91
2022-12-23T02:21:06.947Z,101515.38
2022-12-23T02:24:02.493Z,101526.91
2022-12-23T02:26:49.791Z,101523.47
2022-12-23T02:29:29.364Z,101528.72
2022-12-23T02:32:16.388Z,101534.03
2022-12-23T02:34:51.549Z,101528.75
2022-12-23T02:37:30.496Z,101527.00
2022-12-23T02:40:06.084Z,101524.34
2022-12-23T02:42:37.538Z,101524.25
2022-12-23T02:45:19.890Z,101524.31
2022-12-23T02:47:57.446Z,101530.47
2022-12-23T02:50:30.255Z,101503.91
2022-12-23T02:53:02.258Z,101533.13
2022-12-23T02:55:34.886Z,101533.16
2022-12-23T02:58:14.772Z,101526.19
2022-12-23T03:00:44.488Z,101522.66
2022-12-23T03:03:12.379Z,101521.78
2022-12-23T03:05:46.307Z,101519.13
2022-12-23T03:08:23.375Z,101533.19
2022-12-23T03:11:03.464Z,101531.59
2022-12-23T03:13:43.117Z,101535.13
2022-12-23T03:16:32.404Z,101529.78
2022-12-23T03:19:21.369Z,101530.69
2022-12-23T03:22:09.659Z,101509.56
2022-12-23T03:24:49.330Z,101492.88
2022-12-23T03:27:25.320Z,101512.13
2022-12-23T03:30:03.068Z,101524.59
2022-12-23T03:32:35.746Z,101503.38
2022-12-23T03:35:06.679Z,101512.31
2022-12-23T03:37:39.225Z,101509.66
2022-12-23T03:40:17.398Z,101487.50
2022-12-23T03:42:48.139Z,101495.63
2022-12-23T03:45:42.728Z,101502.66
2022-12-23T03:48:50.362Z,101503.56
2022-12-23T03:51:33.871Z,101507.06
2022-12-23T03:54:08.521Z,101505.31
2022-12-23T03:56:40.515Z,101515.84
2022-12-23T03:59:37.502Z,101513.28
2022-12-23T04:02:26.862Z,101510.59
2022-12-23T04:05:03.213Z,101477.88
2022-12-23T04:07:36.763Z,101491.97
2022-12-23T04:10:05.382Z,101500.88
2022-12-23T04:12:33.454Z,101491.28
2022-12-23T04:15:00.982Z,101487.69
2022-12-23T04:17:29.242Z,101501.75
2022-12-23T04:19:56.873Z,101494.69
2022-12-23T04:22:24.214Z,101507.94
2022-12-23T04:24:52.124Z,101509.53
2022-12-23T04:27:19.869Z,101491.91
2022-12-23T04:29:47.606Z,101506.00
2022-12-23T04:32:15.042Z,101505.19
2022-12-23T04:34:42.170Z,101495.53
2022-12-23T04:37:11.127Z,101491.16
2022-12-23T04:39:38.423Z,101483.28
2022-12-23T04:42:05.897Z,101492.91
2022-12-23T04:44:33.588Z,101487.75
2022-12-23T04:47:00.989Z,101489.44
2022-12-23T04:49:29.307Z,101488.63
2022-12-23T04:51:56.668Z,101474.50
2022-12-23T04:54:24.057Z,101487.66
2022-12-23T04:56:51.939Z,101481.50
2022-12-23T04:59:19.281Z,101480.59
2022-12-23T05:01:47.112Z,101486.00
2022-12-23T05:04:14.756Z,101494.69
2022-12-23T05:06:42.403Z,101501.69
2022-12-23T05:09:09.860Z,101507.88
2022-12-23T05:11:42.055Z,101500.06
2022-12-23T05:14:13.474Z,101509.75
2022-12-23T05:16:41.214Z,101509.81
2022-12-23T05:19:08.876Z,101504.44
2022-12-23T05:21:36.193Z,101515.00
2022-12-23T05:24:03.564Z,101506.09
2022-12-23T05:26:30.831Z,101513.09
2022-12-23T05:28:58.215Z,101521.97
2022-12-23T05:31:25.382Z,101511.47
2022-12-23T05:33:53.529Z,101509.75
2022-12-23T05:36:20.882Z,101524.72
2022-12-23T05:38:49.044Z,101510.75
2022-12-23T05:41:17.383Z,101518.63
2022-12-23T05:43:44.589Z,101523.03
2022-12-23T05:46:12.680Z,101520.34
2022-12-23T05:48:40.261Z,101508.97
2022-12-23T05:51:07.789Z,101509.88
2022-12-23T05:53:35.115Z,101501.91
2022-12-23T05:56:06.751Z,101506.41
2022-12-23T05:58:34.412Z,101507.22
2022-12-23T06:01:05.384Z,101497.47
2022-12-23T06:03:32.979Z,101482.44
2022-12-23T06:06:00.668Z,101494.66
2022-12-23T06:08:28.054Z,101489.34
2022-12-23T06:10:55.821Z,101483.13
2022-12-23T06:13:23.214Z,101473.41
2022-12-23T06:15:50.815Z,101492.78
2022-12-23T06:18:18.176Z,101482.13
2022-12-23T06:20:48.959Z,101487.34
2022-12-23T06:23:16.706Z,101481.25
2022-12-23T06:25:43.934Z,101509.44
2022-12-23T06:28:11.251Z,101499.72
2022-12-23T06:30:38.998Z,101490.09
2022-12-23T06:33:06.689Z,101497.09
2022-12-23T06:35:34.103Z,101490.25
2022-12-23T06:38:01.786Z,101492.88
2022-12-23T06:40:29.890Z,101491.91
2022-12-23T06:42:58.135Z,101486.56
2022-12-23T06:45:25.503Z,101488.34
2022-12-23T06:47:52.827Z,101483.84
2022-12-23T06:50:21.079Z,101490.06
2022-12-23T06:52:49.391Z,101497.97
2022-12-23T06:55:16.732Z,101499.75
2022-12-23T06:57:43.984Z,101491.00
2022-12-23T07:00:12.234Z,101492.88
2022-12-23T07:02:40.233Z,101478.84
2022-12-23T07:05:07.825Z,101490.34
2022-12-23T07:07:35.257Z,101492.13
2022-12-23T07:10:02.931Z,101471.91
2022-12-23T07:12:30.831Z,101467.25
2022-12-23T07:14:58.495Z,101491.97
2022-12-23T07:17:25.858Z,101496.38
2022-12-23T07:19:53.119Z,101499.16
2022-12-23T07:22:20.523Z,101503.50
2022-12-23T07:24:47.878Z,101509.72
2022-12-23T07:27:15.216Z,101507.09
2022-12-23T07:29:44.148Z,101505.31
2022-12-23T07:32:11.911Z,101516.00
2022-12-23T07:34:39.090Z,101520.31
2022-12-23T07:37:06.441Z,101525.53
2022-12-23T07:39:35.226Z,101515.06
2022-12-23T07:42:33.936Z,101515.91
2022-12-23T07:44:49.955Z,101522.06
2022-12-23T07:47:17.305Z,101515.06
2022-12-23T07:49:44.527Z,101524.06
2022-12-23T07:52:12.170Z,101509.94
2022-12-23T07:54:39.680Z,101505.50
2022-12-23T07:57:06.942Z,101515.16
2022-12-23T07:59:34.191Z,101507.28
2022-12-23T08:02:02.124Z,101516.94
2022-12-23T08:04:29.665Z,101511.66
2022-12-23T08:06:57.082Z,101509.09
2022-12-23T08:09:24.607Z,101504.72
2022-12-23T08:11:51.915Z,101495.97
2022-12-23T08:14:19.270Z,101506.53
2022-12-23T08:16:48.343Z,101511.03
2022-12-23T08:19:15.789Z,101502.19
2022-12-23T08:21:43.026Z,101499.53
2022-12-23T08:24:11.782Z,101511.78
2022-12-23T08:26:39.453Z,101501.31
2022-12-23T08:29:06.728Z,101497.75
2022-12-23T08:31:34.185Z,101483.69
2022-12-23T08:34:02.129Z,101488.16
2022-12-23T08:36:32.874Z,101482.03
2022-12-23T08:39:02.927Z,101491.72
2022-12-23T08:41:34.175Z,101486.47
2022-12-23T08:44:01.882Z,101491.88
2022-12-23T08:46:30.034Z,101491.03
2022-12-23T08:48:57.512Z,101459.22
2022-12-23T08:51:26.021Z,101466.44
2022-12-23T08:54:00.574Z,101467.53
2022-12-23T08:56:34.746Z,101473.69
2022-12-23T08:59:03.276Z,101467.53
2022-12-23T09:01:33.147Z,101465.78
2022-12-23T09:04:07.988Z,101490.47
2022-12-23T09:06:41.490Z,101487.00
2022-12-23T09:09:11.425Z,101498.47
2022-12-23T09:11:39.442Z,101482.59
2022-12-23T09:14:09.036Z,101472.97
2022-12-23T09:16:36.837Z,101476.66
2022-12-23T09:19:05.173Z,101476.69
2022-12-23T09:21:33.049Z,101474.84
2022-12-23T09:24:00.475Z,101472.34
2022-12-23T09:26:30.685Z,101468.84
2022-12-23T09:28:58.212Z,101463.59
2022-12-23T09:31:30.840Z,101463.59
2022-12-23T09:34:03.978Z,101464.47
2022-12-23T09:36:31.785Z,101463.69
2022-12-23T09:38:59.807Z,101462.00
2022-12-23T09:41:34.837Z,101469.13
2022-12-23T09:44:15.135Z,101467.31
2022-12-23T09:46:57.739Z,101471.72
2022-12-23T09:49:25.567Z,101463.00
2022-12-23T09:51:58.563Z,101434.81
2022-12-23T09:54:32.129Z,101445.41
2022-12-23T09:57:03.308Z,101451.59
2022-12-23T09:59:49.375Z,101444.75
2022-12-23T10:02:53.077Z,101456.13
2022-12-23T10:05:57.127Z,101466.69
2022-12-23T10:08:33.329Z,101472.94
2022-12-23T10:11:07.277Z,101465.06
2022-12-23T10:14:01.054Z,101467.66
2022-12-23T10:16:30.552Z,101469.50
2022-12-23T10:19:01.974Z,101470.38
2022-12-23T10:21:50.714Z,101456.41
2022-12-23T10:24:24.582Z,101466.94
2022-12-23T10:27:02.906Z,101474.03
2022-12-23T10:29:34.396Z,101474.91
2022-12-23T10:32:03.022Z,101478.47
2022-12-23T10:34:52.055Z,101459.16
2022-12-23T10:37:54.719Z,101480.34
2022-12-23T10:40:46.817Z,101476.75
2022-12-23T10:43:23.930Z,101491.72
2022-12-23T10:45:54.299Z,101486.59
2022-12-23T10:48:53.539Z,101476.81
2022-12-23T10:51:28.656Z,101482.16
2022-12-23T10:54:03.277Z,101461.00
2022-12-23T10:56:31.602Z,101468.16
2022-12-23T10:59:01.558Z,101452.22
2022-12-23T11:01:32.925Z,101463.78
2022-12-23T11:04:03.203Z,101462.94
2022-12-23T11:06:37.184Z,101463.00
2022-12-23T11:09:06.541Z,101471.75
2022-12-23T11:12:02.970Z,101478.81
2022-12-23T11:14:36.684Z,101473.56
2022-12-23T11:17:06.694Z,101455.19
2022-12-23T11:19:34.652Z,101448.22
2022-12-23T11:22:02.647Z,101447.41
2022-12-23T11:24:39.589Z,101430.69
2022-12-23T11:27:14.760Z,101425.44
2022-12-23T11:29:54.986Z,101432.50
2022-12-23T11:32:25.926Z,101399.06
2022-12-23T11:34:54.934Z,101415.84
2022-12-23T11:37:43.478Z,101413.16
2022-12-23T11:40:27.244Z,101422.84
2022-12-23T11:43:02.847Z,101428.19
2022-12-23T11:45:35.967Z,101420.22
2022-12-23T11:48:06.478Z,101425.53
2022-12-23T11:50:40.068Z,101424.59
2022-12-23T11:53:21.289Z,101428.16
2022-12-23T11:56:12.397Z,101405.34
2022-12-23T11:58:51.409Z,101410.56
2022-12-23T12:01:22.154Z,101375.44
2022-12-23T12:04:12.599Z,101396.56
2022-12-23T12:06:48.398Z,101392.19
2022-12-23T12:09:22.248Z,101369.28
2022-12-23T12:12:04.371Z,101395.81
2022-12-23T12:14:43.411Z,101386.13
2022-12-23T12:17:33.767Z,101379.09
2022-12-23T12:20:12.876Z,101382.63
2022-12-23T12:22:50.006Z,101392.28
2022-12-23T12:25:20.976Z,101386.13
2022-12-23T12:27:56.749Z,101372.09
2022-12-23T12:30:24.290Z,101377.38
2022-12-23T12:33:13.977Z,101386.13
2022-12-23T12:35:53.324Z,101391.47
2022-12-23T12:38:27.534Z,101392.28
2022-12-23T12:41:11.946Z,101392.19
2022-12-23T12:43:47.583Z,101396.59
2022-12-23T12:46:33.983Z,101379.84
2022-12-23T12:49:09.778Z,101369.28
2022-12-23T12:51:50.576Z,101369.31
2022-12-23T12:54:56.669Z,101369.31
2022-12-23T12:57:25.580Z,101356.09
2022-12-23T13:00:05.582Z,101371.06
2022-12-23T13:02:36.900Z,101373.75
2022-12-23T13:05:38.799Z,101376.41
2022-12-23T13:08:28.021Z,101362.34
2022-12-23T13:11:10.324Z,101366.75
2022-12-23T13:13:58.150Z,101365.94
2022-12-23T13:16:25.402Z,101372.09
2022-12-23T13:19:31.339Z,101368.63
2022-12-23T13:22:16.967Z,101369.50
2022-12-23T13:25:21.408Z,101369.50
2022-12-23T13:27:59.018Z,101377.41
2022-12-23T13:30:43.192Z,101372.13
2022-12-23T13:33:23.151Z,101375.59
2022-12-23T13:36:06.075Z,101384.31
2022-12-23T13:38:52.756Z,101364.13
2022-12-23T13:41:41.722Z,101362.34
2022-12-23T13:44:11.126Z,101365.81
2022-12-23T13:47:03.259Z,101375.41
2022-12-23T13:50:01.679Z,101359.50
2022-12-23T13:52:50.719Z,101386.81
2022-12-23T13:55:49.209Z,101377.16
2022-12-23T13:58:25.095Z,101378.84
2022-12-23T14:01:08.652Z,101384.09
2022-12-23T14:03:41.995Z,101372.66
2022-12-23T14:06:43.469Z,101371.78
2022-12-23T14:09:16.604Z,101367.38
2022-12-23T14:11:45.907Z,101369.06
2022-12-23T14:14:24.186Z,101377.06
2022-12-23T14:17:09.922Z,101391.94
2022-12-23T14:19:55.399Z,101389.28
2022-12-23T14:22:42.029Z,101390.13
2022-12-23T14:25:27.686Z,101391.00
2022-12-23T14:28:19.789Z,101393.66
2022-12-23T14:30:47.433Z,101393.56
2022-12-23T14:33:28.233Z,101397.91
2022-12-23T14:36:15.486Z,101417.28
2022-12-23T14:38:43.186Z,101410.22
2022-12-23T14:41:38.627Z,101419.91
2022-12-23T14:44:41.571Z,101418.94
2022-12-23T14:47:40.414Z,101425.09
2022-12-23T14:50:32.941Z,101418.91
2022-12-23T14:53:04.786Z,101411.78
2022-12-23T14:55:32.976Z,101421.41
2022-12-23T14:58:18.544Z,101428.38
2022-12-23T15:01:01.140Z,101411.59
2022-12-23T15:03:34.107Z,101424.75
2022-12-23T15:06:06.520Z,101427.34
2022-12-23T15:08:40.497Z,101432.59
2022-12-23T15:11:36.704Z,101438.75
2022-12-23T15:14:11.348Z,101432.63
2022-12-23T15:16:40.865Z,101418.50
2022-12-23T15:19:20.976Z,101406.13
2022-12-23T15:21:56.527Z,101406.09
2022-12-23T15:24:30.767Z,101413.94
2022-12-23T15:27:25.164Z,101381.28
2022-12-23T15:29:52.807Z,101396.34
2022-12-23T15:32:23.838Z,101399.81
2022-12-23T15:34:53.196Z,101395.41
2022-12-23T15:37:27.991Z,101386.53
2022-12-23T15:40:04.474Z,101400.63
2022-12-23T15:42:38.770Z,101415.53
2022-12-23T15:45:40.335Z,101419.84
2022-12-23T15:48:26.307Z,101429.41
2022-12-23T15:50:59.700Z,101431.16
2022-12-23T15:53:34.747Z,101434.56
2022-12-23T15:56:19.092Z,101432.84
2022-12-23T15:58:48.127Z,101442.53
2022-12-23T16:01:18.666Z,101437.16
2022-12-23T16:03:58.749Z,101446.81
2022-12-23T16:06:29.263Z,101429.97
2022-12-23T16:08:59.724Z,101447.69
2022-12-23T16:11:57.046Z,101442.41
2022-12-23T16:14:35.843Z,101413.19
2022-12-23T16:17:09.199Z,101457.25
2022-12-23T16:19:56.674Z,101435.09
2022-12-23T16:22:29.739Z,101454.53
2022-12-23T16:24:57.063Z,101454.41
2022-12-23T16:27:33.077Z,101479.03
2022-12-23T16:30:04.202Z,101469.38
2022-12-23T16:32:31.609Z,101464.06
2022-12-23T16:35:11.089Z,101463.16
2022-12-23T16:37:38.517Z,101472.81
2022-12-23T16:40:14.710Z,101477.16
2022-12-23T16:42:42.231Z,101485.03
2022-12-23T16:45:13.412Z,101478.00
2022-12-23T16:47:43.322Z,101472.72
2022-12-23T16:50:15.122Z,101464.84
2022-12-23T16:52:42.593Z,101466.59
2022-12-23T16:55:16.414Z,101453.38
2022-12-23T16:57:44.784Z,101470.00
2022-12-23T17:00:16.921Z,101464.72
2022-12-23T17:02:45.556Z,101463.81
2022-12-23T17:05:18.299Z,101471.69
2022-12-23T17:07:46.252Z,101462.81
2022-12-23T17:10:15.564Z,101470.75
2022-12-23T17:12:45.120Z,101471.63
2022-12-23T17:15:21.657Z,101433.66
2022-12-23T17:17:51.189Z,101436.25
2022-12-23T17:20:21.488Z,101461.78
2022-12-23T17:22:55.658Z,101448.50
2022-12-23T17:25:26.407Z,101458.22
2022-12-23T17:27:56.605Z,101464.25
2022-12-23T17:30:27.294Z,101462.44
2022-12-23T17:33:00.210Z,101471.19
2022-12-23T17:35:27.552Z,101469.38
2022-12-23T17:37:54.993Z,101470.28
2022-12-23T17:40:22.704Z,101471.97
2022-12-23T17:42:50.205Z,101485.94
2022-12-23T17:45:30.498Z,101480.63
2022-12-23T17:47:59.457Z,101473.53
2022-12-23T17:50:27.684Z,101472.69
2022-12-23T17:52:55.163Z,101478.84
2022-12-23T17:55:25.627Z,101478.00
2022-12-23T17:57:53.281Z,101485.00
2022-12-23T18:00:31.909Z,101473.53
2022-12-23T18:03:01.758Z,101459.38
2022-12-23T18:05:32.578Z,101480.50
2022-12-23T18:08:02.018Z,101464.56
2022-12-23T18:10:34.176Z,101497.16
2022-12-23T18:13:08.179Z,101493.50
2022-12-23T18:15:42.498Z,101504.97
2022-12-23T18:18:20.482Z,101477.56
2022-12-23T18:20:56.375Z,101509.38
2022-12-23T18:23:30.209Z,101514.66
2022-12-23T18:25:58.650Z,101508.44
2022-12-23T18:28:27.256Z,101493.31
2022-12-23T18:30:57.663Z,101529.53
2022-12-23T18:33:29.216Z,101550.53
2022-12-23T18:35:57.283Z,101530.09
2022-12-23T18:38:24.720Z,101561.19
2022-12-23T18:40:54.489Z,101576.06
2022-12-23T18:43:26.067Z,101560.09
2022-12-23T18:45:54.229Z,101567.34
2022-12-23T18:48:22.079Z,101568.34
2022-12-23T18:50:49.833Z,101574.41
2022-12-23T18:53:23.801Z,101564.84
2022-12-23T18:55:52.287Z,101560.41
2022-12-23T18:58:20.477Z,101560.44
2022-12-23T19:00:49.714Z,101585.88
2022-12-23T19:03:27.050Z,101598.28
2022-12-23T19:05:55.749Z,101601.72
2022-12-23T19:08:27.646Z,101580.59
2022-12-23T19:10:56.076Z,101601.97
2022-12-23T19:13:24.017Z,101588.72
2022-12-23T19:15:52.341Z,101579.00
2022-12-23T19:18:22.446Z,101586.03
2022-12-23T19:20:50.672Z,101577.22
2022-12-23T19:23:18.469Z,101593.09
2022-12-23T19:25:54.593Z,101592.19
2022-12-23T19:28:24.316Z,101570.81
2022-12-23T19:30:51.721Z,101597.25
2022-12-23T19:33:20.042Z,101604.28
2022-12-23T19:35:47.833Z,101604.22
2022-12-23T19:38:15.362Z,101601.63
2022-12-23T19:40:43.094Z,101591.97
2022-12-23T19:43:10.640Z,101596.41
2022-12-23T19:45:38.084Z,101595.50
2022-12-23T19:48:05.870Z,101602.50
2022-12-23T19:50:33.485Z,101605.13
2022-12-23T19:53:01.218Z,101598.16
2022-12-23T19:55:28.555Z,101603.44
2022-12-23T19:57:55.843Z,101598.97
2022-12-23T20:00:23.030Z,101585.81
2022-12-23T20:02:58.457Z,101592.75
2022-12-23T20:05:26.454Z,101609.34
2022-12-23T20:07:53.971Z,101592.69
2022-12-23T20:10:21.340Z,101589.19
2022-12-23T20:12:48.766Z,101596.13
2022-12-23T20:15:16.108Z,101602.22
2022-12-23T20:17:44.444Z,101608.31
2022-12-23T20:20:12.107Z,101586.34
2022-12-23T20:22:39.406Z,101609.97
2022-12-23T20:25:08.100Z,101615.16
2022-12-23T20:27:41.655Z,101604.66
2022-12-23T20:30:10.879Z,101599.50
2022-12-23T20:32:38.132Z,101627.50
2022-12-23T20:35:05.948Z,101631.81
2022-12-23T20:37:34.827Z,101636.94
2022-12-23T20:40:02.085Z,101650.06
2022-12-23T20:42:31.532Z,101662.16
2022-12-23T20:44:58.895Z,101663.16
2022-12-23T20:47:27.739Z,101659.59
2022-12-23T20:49:57.224Z,101664.81
2022-12-23T20:52:26.384Z,101655.09
2022-12-23T20:54:57.495Z,101655.13
2022-12-23T20:57:25.586Z,101647.13
2022-12-23T20:59:52.770Z,101652.41
2022-12-23T21:02:20.613Z,101652.47
2022-12-23T21:04:47.999Z,101654.16
2022-12-23T21:07:15.917Z,101641.00
2022-12-23T21:09:43.279Z,101627.81
2022-12-23T21:12:10.541Z,101635.66
2022-12-23T21:14:37.808Z,101627.63
2022-12-23T21:17:06.339Z,101634.72
2022-12-23T21:19:35.573Z,101647.03
2022-12-23T21:22:04.907Z,101647.78
2022-12-23T21:24:32.850Z,101664.41
2022-12-23T21:27:00.385Z,101662.56
2022-12-23T21:29:28.012Z,101658.19
2022-12-23T21:31:55.786Z,101666.91
2022-12-23T21:34:23.358Z,101651.09
2022-12-23T21:36:50.798Z,101647.56
2022-12-23T21:39:18.748Z,101646.81
2022-12-23T21:41:46.272Z,101645.03
2022-12-23T21:44:16.809Z,101634.50
2022-12-23T21:46:44.282Z,101622.19
2022-12-23T21:49:11.879Z,101622.97
2022-12-23T21:51:41.333Z,101640.44
2022-12-23T21:54:11.176Z,101638.66
2022-12-23T21:56:39.820Z,101637.69
2022-12-23T21:59:12.146Z,101633.34
2022-12-23T22:01:40.091Z,101656.97
2022-12-23T22:04:07.905Z,101651.81
2022-12-23T22:06:39.550Z,101654.44
2022-12-23T22:09:09.604Z,101637.78
2022-12-23T22:11:38.355Z,101646.56
2022-12-23T22:14:08.709Z,101642.16
2022-12-23T22:16:37.176Z,101627.09
2022-12-23T22:19:06.164Z,101633.34
2022-12-23T22:21:35.038Z,101634.06
2022-12-23T22:24:03.342Z,101639.50
2022-12-23T22:26:32.708Z,101653.47
2022-12-23T22:29:04.412Z,101640.25
2022-12-23T22:31:35.687Z,101648.16
2022-12-23T22:34:04.268Z,101623.25
2022-12-23T22:36:32.221Z,101629.44
2022-12-23T22:39:02.018Z,101652.59
2022-12-23T22:41:31.024Z,101648.16
2022-12-23T22:43:59.717Z,101644.56
2022-12-23T22:46:28.315Z,101656.06
2022-12-23T22:48:56.861Z,101655.03
2022-12-23T22:51:28.083Z,101634.78
2022-12-23T22:53:55.927Z,101596.84
2022-12-23T22:56:24.433Z,101627.97
2022-12-23T22:58:52.910Z,101618.25
2022-12-23T23:01:31.947Z,101631.41
2022-12-23T23:04:01.782Z,101631.38
2022-12-23T23:06:30.968Z,101631.44
2022-12-23T23:08:58.774Z,101651.66
2022-12-23T23:11:27.941Z,101657.69
2022-12-23T23:13:56.146Z,101629.34
2022-12-23T23:16:25.017Z,101650.69
2022-12-23T23:18:53.523Z,101632.09
2022-12-23T23:21:25.557Z,101643.56
2022-12-23T23:23:56.670Z,101654.13
2022-12-23T23:26:28.071Z,101626.94
2022-12-23T23:28:56.356Z,101599.78
2022-12-23T23:31:42.412Z,101604.09
2022-12-23T23:34:10.887Z,101620.63
2022-12-23T23:36:39.804Z,101633.75
2022-12-23T23:39:07.293Z,101641.56
2022-12-23T23:41:36.143Z,101652.13
2022-12-23T23:44:03.754Z,101666.13
2022-12-23T23:46:32.254Z,101662.59
2022-12-23T23:48:59.920Z,101665.28
2022-12-23T23:51:27.704Z,101651.06
2022-12-23T23:53:55.170Z,101643.31
2022-12-23T23:56:25.664Z,101643.44
2022-12-23T23:58:54.067Z,101657.38
